Flight ASXC01X

  • Submitted By: Rafal Piotrowski
  • Departure Airport: Krakow im. Jana Pawla II (EPKK)
  • Arrival Airport: Gdansk im. Lecha Walesy (EPGD)
  • Aircraft: A320-214 (SP-GSA)
  • Flight Time: 1.10
  • Date Submitted: 11/09/2015
  • Route: NAVUR N744 OVBOR N133 IRLUN
  • Status: Accepted
Flight Details
Gross Revenue:
(145 load / € 125.00 per unit
€ 18,125.00
Fuel Cost:
(3500 fuel used @ 1.5 / unit)
€ 5,250.00

Additional Log Information:

View Log

[2015/11/09 23:26:00]
Flight IATA:ASXC01X
Pilot Number:ASX0102
Company ICAO:ASX
Aircraft Type:A320-214
PAX:145
Aircraft Registration:SP-GSA
Departing Airport: EPKK
Destination Airport: EPGD
Alternate Airport:EPBY
Online: VATSIM
Route:NAVUR N744 OVBOR N133 IRLUN
Flight Level:30000
23:26 Zero fuel Weight: 57906 Kg, Fuel Weight: 2420 Kg
23:26 VATSIM:EPKK 092300Z 27005KT 9999 -RA FEW025 OVC056 12/10 Q1018
23:26 VATSIM:EPGD 092300Z 25013KT 220V280 9999 -RA FEW009 BKN018 09/07 Q1008
23:39 Parking Brakes off
23:39 Com1 Freq=122.80
23:46 VR= 150 Knots
23:46 V2= 151 Knots
23:46 Take-off
23:46 Take off Weight: 64375 Kg
23:46 Wind: 270? @ 005 Knots Heading: 257?
23:46 POS N50? 04? 38?? E019? 46? 54??
23:46 N11 92 N12 92
23:46 Flaps:2 at 152 Knots
23:46 Gear Up: 155 Knots
23:46 Flaps:0 at 191 Knots
23:58 TOC
23:58 Fuel Weight: 5791 Kg
00:01 Wind:328?@103 Knots Heading:339? Ground Speed: 359 Knots Altitude 32047 ft
00:16 Wind:319?@117 Knots Heading: 337? Ground Speed: 348 Knots Altitude 31998 ft
00:19 TOD
00:19 Fuel Weight: 4867 Kg
00:31 Wind:294?@062 Knots Heading: 012? Ground Speed: 295 Knots Altitude 13458 ft
00:37 Flaps:1 at 202 Knots
00:43 Flaps:3 at 183 Knots
00:43 Gear Down: 182 Knots
00:43 Flaps:4 at 167 Knots
00:43 Flaps:5 at 168 Knots
00:46 Wind:269?@020 Knots Heading: 289? Ground Speed: 125 Knots Altitude 761 ft
00:46 TouchDown:Rate -36 ft/min Speed: 138 Knots
00:46 VATSIM:EPGD 100030Z 26016KT 220V290 9999 -RA BKN011 09/08 Q1007
00:46 Land
00:46 Wind:266?@018 Knots
00:46 Heading: 293?
00:46 Flight Duration: 01:00
00:46 Landing Weight: 61621 Kg
00:46 POS N54? 22? 28?? E018? 28? 41??
00:49 Parking brakes on
00:49 Block to Block Duration: 01:10
00:49 Final Fuel: 4163 Kg
00:49 Spent Fuel: -1743 Kg
00:49 Flight Length: 300 NM
00:49 TOD Land Length: 108 NM

Route Map